Time;durP1;ratioP1;P1;durP2;ratioP2;P2;SDS_P1;SDS_P2;PMS_P1;PMS_P2;Temp;Humidity;BMP_temperature;BMP_pressure;BME280_temperature;BME280_humidity;BME280_pressure;Samples;Min_cycle;Max_cycle;Signal;HPM_P1;HPM_P2
2022/05/08 00:02:11;;;;;;;;;23.67;18.67;;;;;16.60;61.32;101768.53;5057656;28;45493;-58
2022/05/08 00:04:37;;;;;;;;;22.00;17.00;;;;;16.50;62.03;101769.09;5055706;28;45963;-55
2022/05/08 00:07:02;;;;;;;;;21.33;18.00;;;;;16.45;61.84;101764.97;5057371;27;45508;-56
2022/05/08 00:09:28;;;;;;;;;19.00;18.00;;;;;16.45;61.73;101768.53;5057659;28;45469;-55
2022/05/08 00:11:54;;;;;;;;;18.67;17.00;;;;;16.41;62.43;101772.38;5073241;28;45586;-51
2022/05/08 00:14:19;;;;;;;;;24.67;17.33;;;;;16.34;62.78;101768.31;5053347;27;46715;-58
2022/05/08 00:16:45;;;;;;;;;20.33;19.67;;;;;16.36;62.51;101768.22;5056823;28;45325;-60
2022/05/08 00:19:10;;;;;;;;;22.67;20.00;;;;;16.19;62.15;101754.03;5039637;28;45333;-61
2022/05/08 00:21:36;;;;;;;;;21.00;18.00;;;;;16.27;62.50;101766.97;5055809;28;45386;-64
2022/05/08 00:24:01;;;;;;;;;22.67;21.00;;;;;16.22;62.97;101769.06;5057151;27;45939;-60
2022/05/08 00:26:26;;;;;;;;;16.67;16.33;;;;;16.05;63.31;101753.13;5056800;28;45656;-59
2022/05/08 00:28:52;;;;;;;;;23.33;21.33;;;;;16.13;63.40;101764.25;5056597;28;45452;-53
2022/05/08 00:31:17;;;;;;;;;17.33;15.33;;;;;16.10;63.55;101773.34;5055782;28;45636;-60
2022/05/08 00:33:43;;;;;;;;;23.00;19.33;;;;;16.08;63.18;101769.03;5056605;28;45738;-58
2022/05/08 00:36:09;;;;;;;;;20.33;17.67;;;;;16.01;63.58;101771.22;5055929;28;45511;-53
2022/05/08 00:38:34;;;;;;;;;18.67;16.67;;;;;16.00;63.71;101769.50;5056807;28;45480;-54
2022/05/08 00:41:00;;;;;;;;;17.33;15.33;;;;;16.07;62.94;101775.38;5055092;28;45457;-57
2022/05/08 00:43:32;;;;;;;;;22.00;20.33;;;;;16.09;62.78;101776.13;5056176;28;45717;-62
2022/05/08 00:46:02;;;;;;;;;25.67;21.67;;;;;16.01;63.62;101752.44;5056612;28;45458;-59
2022/05/08 00:48:28;;;;;;;;;18.67;18.00;;;;;16.01;63.34;101767.69;5056980;28;45342;-57
2022/05/08 00:50:54;;;;;;;;;20.00;14.67;;;;;16.03;63.44;101772.03;5054588;28;45633;-57
2022/05/08 00:53:20;;;;;;;;;20.00;18.33;;;;;15.93;63.66;101765.47;5056918;28;45237;-59
2022/05/08 00:55:47;;;;;;;;;21.33;19.00;;;;;15.91;63.15;101756.66;5054616;28;45519;-56
2022/05/08 00:58:14;;;;;;;;;27.33;20.67;;;;;15.92;63.53;101764.59;5057033;28;45346;-58
2022/05/08 01:00:40;;;;;;;;;17.67;16.33;;;;;15.95;63.25;101784.16;5053602;27;45524;-60
2022/05/08 01:03:05;;;;;;;;;21.67;20.33;;;;;15.86;63.14;101767.63;5054936;27;47691;-59
2022/05/08 01:05:31;;;;;;;;;20.67;18.67;;;;;15.94;63.23;101777.94;5056151;27;45806;-53
2022/05/08 01:07:56;;;;;;;;;25.67;21.00;;;;;15.88;63.46;101776.44;5055749;28;45368;-54
2022/05/08 01:10:22;;;;;;;;;21.33;21.33;;;;;15.75;63.68;101762.03;5054114;28;45415;-63
2022/05/08 01:12:48;;;;;;;;;20.33;19.33;;;;;15.80;63.95;101775.19;5053758;28;45959;-61
2022/05/08 01:15:16;;;;;;;;;19.33;15.67;;;;;15.66;63.60;101759.94;5056482;28;45263;-60
2022/05/08 01:17:41;;;;;;;;;21.67;20.33;;;;;15.66;64.28;101767.09;5054962;28;45522;-63
2022/05/08 01:20:07;;;;;;;;;22.33;20.00;;;;;15.70;63.75;101774.88;5070582;27;45589;-63
2022/05/08 01:22:33;;;;;;;;;18.33;16.67;;;;;15.65;63.91;101776.97;5053544;27;45560;-64
2022/05/08 01:25:03;;;;;;;;;25.00;20.00;;;;;15.57;64.58;101768.47;5055713;28;45525;-62
2022/05/08 01:27:28;;;;;;;;;19.67;19.67;;;;;15.48;64.84;101769.00;5054680;27;45361;-62
2022/05/08 01:29:55;;;;;;;;;20.33;20.33;;;;;15.45;64.10;101763.81;5055233;28;45668;-57
2022/05/08 01:32:21;;;;;;;;;19.00;19.00;;;;;15.42;65.01;101759.50;5055587;28;45413;-60
2022/05/08 01:34:46;;;;;;;;;19.33;19.33;;;;;15.39;63.78;101757.00;5056349;28;45514;-53
2022/05/08 01:37:12;;;;;;;;;22.00;19.00;;;;;15.44;64.96;101762.09;5054501;28;45470;-61
2022/05/08 01:39:37;;;;;;;;;19.67;19.00;;;;;15.41;64.80;101756.91;5056377;28;45575;-54
2022/05/08 01:42:06;;;;;;;;;23.33;20.33;;;;;15.30;65.08;101758.38;5052801;28;45622;-57
2022/05/08 01:44:31;;;;;;;;;19.33;19.33;;;;;15.31;64.61;101754.75;5056878;28;45257;-51
2022/05/08 01:49:41;;;;;;;;;20.33;19.67;;;;;15.14;65.27;101754.84;5056227;28;45362;-57
2022/05/08 01:52:07;;;;;;;;;22.33;22.33;;;;;15.12;65.55;101762.13;5055963;28;45417;-52
2022/05/08 01:54:33;;;;;;;;;20.00;20.00;;;;;15.14;65.65;101760.22;5056476;28;45227;-58
2022/05/08 01:56:58;;;;;;;;;26.33;19.67;;;;;15.13;65.43;101754.94;5053067;28;45528;-57
2022/05/08 01:59:24;;;;;;;;;22.67;21.33;;;;;15.18;65.84;101775.16;5055504;28;46116;-59
2022/05/08 02:01:49;;;;;;;;;21.33;20.00;;;;;15.09;66.40;101769.44;5054069;28;46332;-58
2022/05/08 02:04:15;;;;;;;;;31.00;24.67;;;;;14.89;67.22;101754.50;5056176;28;45286;-63
2022/05/08 02:06:44;;;;;;;;;17.67;17.33;;;;;14.78;66.58;101765.81;5054902;28;47210;-56
2022/05/08 02:09:10;;;;;;;;;22.67;20.00;;;;;14.73;67.38;101771.41;5056163;28;45674;-60
2022/05/08 02:11:35;;;;;;;;;19.67;16.67;;;;;14.79;66.74;101764.00;5054831;28;46160;-62
2022/05/08 02:14:02;;;;;;;;;25.33;22.00;;;;;14.89;66.60;101765.22;5054727;28;46747;-57
2022/05/08 02:16:29;;;;;;;;;24.33;21.67;;;;;14.89;66.06;101760.72;5055583;28;45700;-59
2022/05/08 02:18:55;;;;;;;;;23.00;21.33;;;;;14.87;66.52;101767.13;5070118;27;45629;-61
2022/05/08 02:21:21;;;;;;;;;21.67;20.00;;;;;14.92;66.55;101770.41;5054952;28;45459;-60
2022/05/08 02:23:46;;;;;;;;;24.00;20.00;;;;;14.93;66.20;101772.97;5053848;28;45640;-59
2022/05/08 02:26:12;;;;;;;;;25.00;22.00;;;;;14.85;67.33;101774.38;5054723;28;45517;-59
2022/05/08 02:28:38;;;;;;;;;22.33;19.00;;;;;14.84;67.20;101780.66;5053738;28;45438;-55
2022/05/08 02:31:04;;;;;;;;;24.67;24.67;;;;;14.72;67.68;101777.72;5054802;28;45634;-55
2022/05/08 02:33:29;;;;;;;;;28.00;26.00;;;;;14.52;68.22;101767.22;5055109;28;45571;-62
2022/05/08 02:35:55;;;;;;;;;23.25;22.00;;;;;14.50;68.93;101779.81;5055655;28;46021;-59
2022/05/08 02:38:20;;;;;;;;;27.25;25.50;;;;;14.49;68.28;101786.13;5055955;28;45511;-60
2022/05/08 02:40:45;;;;;;;;;23.50;21.50;;;;;14.53;68.01;101784.16;5053497;28;46228;-59
2022/05/08 02:43:11;;;;;;;;;30.25;26.50;;;;;14.53;68.43;101785.00;5053228;28;45382;-59
2022/05/08 02:45:36;;;;;;;;;29.25;25.00;;;;;14.54;67.90;101797.44;5055253;28;45505;-53
2022/05/08 02:48:02;;;;;;;;;30.25;23.50;;;;;14.53;67.89;101784.16;5054196;28;45519;-54
2022/05/08 02:50:27;;;;;;;;;29.50;27.25;;;;;14.43;68.18;101763.19;5054945;28;45659;-60
2022/05/08 02:52:52;;;;;;;;;32.75;28.00;;;;;14.53;67.65;101790.38;5055182;28;45452;-59
2022/05/08 03:00:48;;;;;;;;;31.75;28.50;;;;;14.55;68.40;101796.50;5054327;28;45771;-62
2022/05/08 03:03:14;;;;;;;;;39.75;31.50;;;;;14.50;68.90;101795.88;5054898;27;45454;-55
2022/05/08 03:05:47;;;;;;;;;45.50;33.75;;;;;14.42;69.19;101790.03;5053326;28;45254;-56
2022/05/08 03:08:15;;;;;;;;;32.25;28.75;;;;;14.49;68.51;101795.97;5053601;28;45660;-59
2022/05/08 03:13:25;;;;;;;;;49.50;36.75;;;;;14.47;68.88;101796.06;5058819;28;45322;-54
2022/05/08 03:15:51;;;;;;;;;40.00;34.75;;;;;14.26;69.84;101781.09;5073244;27;45362;-58
2022/05/08 03:18:16;;;;;;;;;42.25;35.75;;;;;14.31;69.25;101805.78;5058829;28;45772;-54
2022/05/08 03:20:42;;;;;;;;;41.00;37.00;;;;;14.27;69.96;101791.72;5054982;28;45646;-52
2022/05/08 03:23:08;;;;;;;;;46.75;40.00;;;;;14.13;70.33;101807.63;5059136;28;45444;-58
2022/05/08 03:25:33;;;;;;;;;48.25;39.50;;;;;14.16;70.29;101804.78;5057924;28;45474;-53
2022/05/08 03:27:59;;;;;;;;;46.00;38.50;;;;;14.18;70.71;101800.19;5056290;28;45673;-60
2022/05/08 03:30:25;;;;;;;;;46.00;36.25;;;;;14.18;70.36;101794.84;5057508;28;45995;-53
2022/05/08 03:32:51;;;;;;;;;47.25;39.50;;;;;14.06;71.20;101799.06;5056282;28;45399;-59
2022/05/08 03:35:16;;;;;;;;;52.75;40.00;;;;;13.92;71.53;101790.84;5056117;27;45370;-54
2022/05/08 03:37:42;;;;;;;;;45.25;37.00;;;;;13.97;71.36;101794.16;5058700;27;45338;-55
2022/05/08 03:40:08;;;;;;;;;46.50;38.50;;;;;14.00;71.38;101801.16;5057011;28;45628;-59
2022/05/08 03:42:33;;;;;;;;;43.50;38.25;;;;;13.99;70.94;101794.09;5055037;28;45351;-54
2022/05/08 03:44:59;;;;;;;;;50.50;39.25;;;;;14.04;70.62;101800.91;5057299;28;45444;-54
2022/05/08 03:47:24;;;;;;;;;40.75;37.25;;;;;14.01;70.73;101795.72;5058128;28;45247;-58
2022/05/08 03:49:50;;;;;;;;;42.75;37.75;;;;;14.04;71.12;101798.25;5057160;28;46159;-56
2022/05/08 03:52:15;;;;;;;;;51.25;40.50;;;;;14.05;70.18;101797.28;5056412;28;45353;-55
2022/05/08 03:54:41;;;;;;;;;47.50;39.50;;;;;14.07;70.13;101798.13;5056000;28;45277;-55
2022/05/08 03:57:06;;;;;;;;;51.00;38.75;;;;;14.12;70.99;101809.44;5058042;28;45653;-57
2022/05/08 03:59:31;;;;;;;;;41.25;37.00;;;;;14.02;70.71;101791.25;5057864;27;46196;-56
2022/05/08 04:01:57;;;;;;;;;50.50;40.00;;;;;14.01;71.31;101803.75;5054490;27;45439;-52
2022/05/08 04:04:22;;;;;;;;;49.25;40.25;;;;;14.00;71.38;101798.50;5057565;28;45512;-58
2022/05/08 04:06:48;;;;;;;;;50.75;38.25;;;;;14.02;71.31;101805.47;5057780;27;45424;-51
2022/05/08 04:09:15;;;;;;;;;53.75;45.00;;;;;14.04;71.35;101800.91;5057944;28;46623;-58
2022/05/08 04:11:41;;;;;;;;;55.00;42.00;;;;;14.07;70.83;101808.81;5055628;27;45413;-61
2022/05/08 04:14:06;;;;;;;;;51.75;42.00;;;;;14.01;71.07;101792.19;5056694;28;45919;-56
2022/05/08 04:16:32;;;;;;;;;51.50;43.25;;;;;13.95;71.68;101800.53;5056996;27;45262;-50
2022/05/08 04:18:57;;;;;;;;;55.50;42.00;;;;;13.87;72.56;101800.91;5055184;27;46846;-55
2022/05/08 04:21:22;;;;;;;;;58.25;46.25;;;;;13.89;71.63;101799.03;5054352;28;45464;-56
2022/05/08 04:26:33;;;;;;;;;54.25;45.00;;;;;13.96;71.63;101811.16;5056544;28;45466;-58
2022/05/08 04:29:00;;;;;;;;;52.75;44.75;;;;;14.02;70.91;101810.84;5055107;28;46247;-61
2022/05/08 04:31:26;;;;;;;;;52.75;44.25;;;;;14.06;71.50;101812.44;5071452;27;45746;-59
2022/05/08 04:33:51;;;;;;;;;62.75;43.00;;;;;14.05;71.02;101805.31;5055294;28;45469;-58
2022/05/08 04:36:17;;;;;;;;;58.25;45.50;;;;;14.12;71.30;101812.09;5057233;28;45385;-55
2022/05/08 04:38:43;;;;;;;;;51.50;41.75;;;;;14.16;70.99;101818.16;5056195;27;45503;-60
2022/05/08 04:41:08;;;;;;;;;56.50;44.75;;;;;14.02;71.30;101808.16;5071146;27;46323;-60
2022/05/08 04:43:34;;;;;;;;;55.25;47.00;;;;;14.04;71.22;101811.63;5056789;27;45298;-49
2022/05/08 04:45:59;;;;;;;;;53.25;43.50;;;;;14.01;71.55;101824.28;5055463;28;45513;-51
2022/05/08 04:48:25;;;;;;;;;48.75;41.00;;;;;14.02;71.27;101826.88;5055258;28;47786;-50
2022/05/08 04:50:50;;;;;;;;;52.50;43.00;;;;;14.01;71.15;101814.47;5053750;27;45449;-46
2022/05/08 04:53:16;;;;;;;;;54.75;44.50;;;;;14.04;71.12;101824.13;5056500;28;45423;-55
2022/05/08 04:55:41;;;;;;;;;54.75;44.75;;;;;14.12;70.95;101836.19;5057722;28;45542;-53
2022/05/08 04:58:07;;;;;;;;;56.50;46.50;;;;;14.08;70.58;101828.41;5056802;28;45428;-53
2022/05/08 05:00:32;;;;;;;;;59.00;46.75;;;;;14.08;71.43;101831.94;5050936;28;45642;-57
2022/05/08 05:02:58;;;;;;;;;54.75;44.00;;;;;13.94;71.40;101823.75;5055384;28;45408;-59
2022/05/08 05:05:23;;;;;;;;;54.75;44.00;;;;;13.87;72.16;101828.53;5054893;28;45854;-58
2022/05/08 05:07:49;;;;;;;;;53.50;45.25;;;;;13.92;71.72;101844.31;5056466;28;45771;-56
2022/05/08 05:10:15;;;;;;;;;48.75;41.75;;;;;13.86;71.99;101837.50;5054323;28;45589;-59
2022/05/08 05:12:40;;;;;;;;;48.50;41.00;;;;;13.84;71.69;101844.72;5055333;28;45592;-59
2022/05/08 05:15:07;;;;;;;;;51.50;41.50;;;;;13.96;71.58;101843.25;5055872;28;45611;-56
2022/05/08 05:17:32;;;;;;;;;48.50;41.75;;;;;13.97;71.65;101850.34;5054243;28;48178;-51
2022/05/08 05:19:58;;;;;;;;;52.25;41.75;;;;;13.97;71.45;101844.97;5053080;28;45637;-53
2022/05/08 05:22:24;;;;;;;;;55.50;44.00;;;;;14.01;71.38;101843.88;5055272;28;45516;-55
2022/05/08 05:24:50;;;;;;;;;51.50;40.50;;;;;14.15;70.91;101854.75;5056202;28;45570;-57
2022/05/08 05:27:15;;;;;;;;;55.50;43.50;;;;;14.16;71.14;101859.16;5055060;27;45449;-56
2022/05/08 05:29:41;;;;;;;;;50.75;41.00;;;;;14.17;70.20;101858.19;5052597;28;45310;-51
2022/05/08 05:32:07;;;;;;;;;54.25;42.75;;;;;14.27;70.59;101868.44;5053479;27;45521;-62
2022/05/08 05:34:32;;;;;;;;;57.50;44.75;;;;;14.28;70.14;101867.50;5055782;28;45532;-56
2022/05/08 05:36:58;;;;;;;;;53.50;43.75;;;;;14.32;70.11;101866.38;5054970;27;46123;-53
2022/05/08 05:39:26;;;;;;;;;61.25;47.00;;;;;14.22;70.90;101871.38;5050770;28;46703;-55
2022/05/08 05:41:51;;;;;;;;;61.75;49.75;;;;;14.14;71.10;101874.41;5054457;28;45460;-57
2022/05/08 05:44:17;;;;;;;;;51.25;41.50;;;;;14.09;70.89;101864.91;5058430;27;45643;-62
2022/05/08 05:49:27;;;;;;;;;52.50;39.25;;;;;14.19;70.55;101868.81;5055752;28;45366;-57
2022/05/08 05:51:53;;;;;;;;;50.25;42.75;;;;;14.21;70.78;101872.31;5055123;28;45510;-58
2022/05/08 05:54:21;;;;;;;;;37.00;32.00;;;;;14.23;70.54;101882.94;5056292;28;45342;-58
2022/05/08 05:56:48;;;;;;;;;52.50;44.25;;;;;14.23;70.55;101865.06;5055379;27;45449;-54
2022/05/08 05:59:13;;;;;;;;;53.75;41.75;;;;;14.34;69.92;101880.56;5055787;28;45350;-59
2022/05/08 06:01:38;;;;;;;;;55.75;45.00;;;;;14.42;70.24;101886.38;5053801;28;45180;-62
2022/05/08 06:04:04;;;;;;;;;48.75;40.25;;;;;14.42;70.11;101886.38;5056111;28;45504;-64
2022/05/08 06:06:29;;;;;;;;;49.00;40.75;;;;;14.42;69.94;101883.72;5055810;28;47250;-65
2022/05/08 06:08:54;;;;;;;;;51.75;40.50;;;;;14.44;69.78;101885.38;5055152;28;45491;-65
2022/05/08 06:11:20;;;;;;;;;53.75;44.50;;;;;14.51;69.57;101893.97;5047554;28;45523;-64
2022/05/08 06:13:45;;;;;;;;;55.00;43.50;;;;;14.46;69.67;101896.03;5056289;27;45218;-61
2022/05/08 06:16:11;;;;;;;;;51.00;41.25;;;;;14.34;70.69;101904.66;5055423;27;46042;-66
2022/05/08 06:18:36;;;;;;;;;54.25;42.50;;;;;14.28;69.81;101879.06;5054817;27;45390;-57
2022/05/08 06:21:03;;;;;;;;;49.75;40.00;;;;;14.32;70.61;101895.81;5050455;28;45426;-55
2022/05/08 06:23:28;;;;;;;;;52.00;41.75;;;;;14.41;70.15;101903.38;5055154;28;45910;-59
2022/05/08 06:25:54;;;;;;;;;54.25;43.50;;;;;14.48;70.34;101902.19;5056513;28;45993;-61
2022/05/08 06:28:19;;;;;;;;;45.25;38.75;;;;;14.31;70.46;101894.97;5052272;28;45426;-61
2022/05/08 06:30:47;;;;;;;;;53.00;44.25;;;;;14.37;70.43;101907.19;5062228;28;45477;-55
2022/05/08 06:33:13;;;;;;;;;46.00;36.50;;;;;14.42;70.29;101905.13;5055494;28;45398;-62
2022/05/08 06:35:39;;;;;;;;;51.00;39.25;;;;;14.39;70.27;101907.97;5055509;28;46033;-63
2022/05/08 06:38:09;;;;;;;;;44.75;39.00;;;;;14.24;70.88;101906.06;5054118;27;45260;-58
2022/05/08 06:40:35;;;;;;;;;50.25;37.50;;;;;14.13;71.38;101899.44;5054317;28;45346;-65
2022/05/08 06:43:00;;;;;;;;;42.50;37.25;;;;;14.11;71.65;101890.63;5060775;28;45480;-60
2022/05/08 06:45:25;;;;;;;;;45.25;38.00;;;;;14.17;71.03;101902.81;5053616;27;45448;-56
2022/05/08 06:47:51;;;;;;;;;45.50;39.50;;;;;14.28;70.75;101904.97;5081883;27;45513;-57
2022/05/08 06:50:19;;;;;;;;;45.00;36.75;;;;;14.23;71.12;101896.31;5063602;27;45429;-62
2022/05/08 06:52:45;;;;;;;;;53.75;42.00;;;;;14.18;71.16;101901.88;5059810;27;45599;-55
2022/05/08 06:55:12;;;;;;;;;53.75;40.25;;;;;14.17;70.81;101889.44;5077163;27;46266;-57
2022/05/08 06:57:37;;;;;;;;;48.50;40.25;;;;;14.16;70.57;101861.81;5057927;27;45228;-64
2022/05/08 07:02:48;;;;;;;;;50.00;40.75;;;;;14.55;69.91;101905.38;5059292;28;45342;-62
2022/05/08 07:05:14;;;;;;;;;54.00;40.75;;;;;14.64;69.30;101905.78;5058481;28;46166;-60
2022/05/08 07:07:39;;;;;;;;;53.00;42.50;;;;;14.68;69.29;101917.19;5058327;28;45528;-62
2022/05/08 07:10:05;;;;;;;;;54.00;41.00;;;;;14.67;69.71;101921.69;5058846;28;45433;-63
2022/05/08 07:12:30;;;;;;;;;49.25;41.25;;;;;14.71;69.42;101923.28;5078398;27;45583;-64
2022/05/08 07:14:56;;;;;;;;;53.50;40.25;;;;;14.64;69.63;101926.34;5059644;28;45448;-60
2022/05/08 07:17:23;;;;;;;;;52.25;40.50;;;;;14.59;70.09;101929.28;5089143;27;45452;-60
2022/05/08 07:19:49;;;;;;;;;48.50;41.00;;;;;14.55;69.59;101906.25;5068633;27;45225;-60
2022/05/08 07:22:15;;;;;;;;;52.00;39.50;;;;;14.81;68.84;101928.13;5064111;27;45536;-62
2022/05/08 07:24:41;;;;;;;;;51.75;42.00;;;;;14.91;68.57;101914.19;5058513;28;45315;-59
2022/05/08 07:27:10;;;;;;;;;49.75;38.50;;;;;15.01;68.36;101923.47;5057372;28;45421;-57
2022/05/08 07:29:36;;;;;;;;;50.25;42.00;;;;;15.04;67.75;101920.59;5058923;27;45391;-59
2022/05/08 07:32:02;;;;;;;;;51.00;40.00;;;;;15.13;67.78;101938.03;5066185;27;45376;-58
2022/05/08 07:37:12;;;;;;;;;52.25;40.75;;;;;15.00;68.81;101945.84;5069827;28;45469;-56
2022/05/08 07:39:37;;;;;;;;;45.00;39.25;;;;;14.96;68.49;101938.03;5064320;28;45542;-62
2022/05/08 07:42:03;;;;;;;;;52.50;40.50;;;;;15.04;68.48;101942.03;5068317;28;45344;-59
2022/05/08 07:44:28;;;;;;;;;47.75;40.00;;;;;15.00;68.50;101939.63;5058069;28;45615;-59
2022/05/08 07:46:53;;;;;;;;;53.00;43.25;;;;;15.08;68.46;101941.88;5057023;28;45759;-63
2022/05/08 07:49:19;;;;;;;;;51.25;41.50;;;;;15.14;67.95;101952.28;5057710;27;45275;-62
2022/05/08 07:51:44;;;;;;;;;55.25;41.75;;;;;15.00;68.95;101942.31;5057532;27;45620;-62
2022/05/08 07:54:09;;;;;;;;;54.00;43.00;;;;;15.00;68.51;101944.97;5058181;27;46205;-57
2022/05/08 07:56:35;;;;;;;;;55.50;42.50;;;;;15.14;67.95;101950.47;5060067;27;45594;-63
2022/05/08 07:59:00;;;;;;;;;46.75;40.25;;;;;15.14;68.37;101961.19;5077019;27;45460;-66
2022/05/08 08:01:26;;;;;;;;;45.75;40.50;;;;;15.22;67.43;101948.22;5076926;27;45370;-60
2022/05/08 08:03:51;;;;;;;;;50.00;43.25;;;;;15.33;67.59;101947.66;5077420;27;47086;-58
2022/05/08 08:06:17;;;;;;;;;48.25;40.75;;;;;15.32;67.20;101949.47;5076949;27;45346;-60
2022/05/08 08:08:42;;;;;;;;;53.75;43.50;;;;;15.30;67.98;101958.53;5060689;27;45568;-54
2022/05/08 08:11:10;;;;;;;;;47.00;39.75;;;;;15.32;67.66;101953.97;5058900;27;45582;-61
2022/05/08 08:13:36;;;;;;;;;51.75;40.25;;;;;15.42;67.84;101965.06;5055691;28;46160;-63
2022/05/08 08:16:03;;;;;;;;;54.75;42.25;;;;;15.29;67.62;101951.44;5054847;27;45311;-60
2022/05/08 08:18:28;;;;;;;;;55.00;41.50;;;;;15.34;68.10;101966.31;5070891;28;45239;-64
2022/05/08 08:20:57;;;;;;;;;54.00;44.50;;;;;15.30;67.97;101956.72;5074006;27;45464;-53
2022/05/08 08:23:23;;;;;;;;;46.00;38.25;;;;;15.29;67.72;101968.41;5078279;28;46341;-63
2022/05/08 08:25:49;;;;;;;;;54.50;43.00;;;;;15.34;67.51;101965.44;5071065;27;45420;-60
2022/05/08 08:28:15;;;;;;;;;50.50;40.75;;;;;15.33;67.34;101964.59;5064801;28;45484;-65
2022/05/08 08:30:40;;;;;;;;;47.25;38.00;;;;;15.32;67.11;101962.00;5064638;27;45448;-57
2022/05/08 08:33:05;;;;;;;;;48.50;40.00;;;;;15.34;67.02;101963.63;5065615;27;45678;-55
2022/05/08 08:35:31;;;;;;;;;44.00;38.50;;;;;15.52;67.22;101960.94;5058151;28;45385;-61
2022/05/08 08:37:56;;;;;;;;;48.00;39.50;;;;;15.63;66.20;101947.81;5058183;28;45496;-63
2022/05/08 08:40:22;;;;;;;;;50.25;41.50;;;;;15.71;66.14;101963.47;5055960;28;45691;-65
2022/05/08 08:42:49;;;;;;;;;48.25;38.50;;;;;15.76;66.32;101956.91;5064414;28;45904;-62
2022/05/08 08:48:11;;;;;;;;;46.50;38.75;;;;;16.00;65.30;101945.72;5055566;28;45319;-63
2022/05/08 08:50:36;;;;;;;;;53.00;40.25;;;;;15.88;65.29;101950.84;5055894;28;45290;-65
2022/05/08 08:53:05;;;;;;;;;47.25;37.00;;;;;15.88;65.31;101958.00;5055734;28;46184;-66
2022/05/08 08:55:31;;;;;;;;;58.00;44.00;;;;;15.99;64.89;101958.28;5048294;27;45483;-60
2022/05/08 08:57:57;;;;;;;;;52.75;38.00;;;;;16.14;64.64;101940.44;5057721;27;45421;-59
2022/05/08 09:00:23;;;;;;;;;55.25;43.25;;;;;16.21;64.36;101960.59;5060223;27;45605;-63
2022/05/08 09:02:50;;;;;;;;;45.50;39.25;;;;;16.13;64.87;101938.69;5036595;28;45431;-61
2022/05/08 09:05:16;;;;;;;;;49.50;40.75;;;;;16.16;64.98;101954.66;5055359;28;45354;-64
2022/05/08 09:07:49;;;;;;;;;49.50;39.00;;;;;16.06;65.37;101942.72;5053416;28;45188;-57
2022/05/08 09:10:20;;;;;;;;;51.50;41.75;;;;;16.13;65.04;101947.63;5053853;28;45586;-61
2022/05/08 09:12:51;;;;;;;;;52.50;38.25;;;;;16.14;65.21;101951.16;5047200;27;46281;-56
2022/05/08 09:15:26;;;;;;;;;47.50;39.50;;;;;16.30;64.52;101957.41;5035342;28;45352;-66
2022/05/08 09:18:10;;;;;;;;;50.25;39.75;;;;;16.34;64.39;101948.19;5035672;28;45311;-66
2022/05/08 09:20:41;;;;;;;;;55.75;41.25;;;;;16.36;63.90;101932.00;5053773;28;45512;-64
2022/05/08 09:23:16;;;;;;;;;53.00;40.00;;;;;16.52;63.52;101947.09;5050274;28;46211;-63
2022/05/08 09:25:59;;;;;;;;;54.25;42.00;;;;;16.69;63.05;101956.88;5055115;28;45344;-57
2022/05/08 09:28:27;;;;;;;;;50.50;41.25;;;;;16.68;62.98;101955.16;5044882;28;45420;-65
2022/05/08 09:30:57;;;;;;;;;51.75;42.75;;;;;16.69;63.22;101958.72;5038649;28;45592;-60
2022/05/08 09:33:28;;;;;;;;;50.50;39.00;;;;;16.77;63.04;101956.41;5048699;28;46093;-66
2022/05/08 09:35:55;;;;;;;;;47.50;36.25;;;;;16.79;62.46;101949.97;5051319;28;45526;-56
2022/05/08 09:38:20;;;;;;;;;49.75;41.75;;;;;16.73;62.93;101952.19;5052622;28;45542;-62
2022/05/08 09:41:04;;;;;;;;;51.00;41.50;;;;;16.75;62.72;101958.31;5045200;27;45705;-59
2022/05/08 09:43:30;;;;;;;;;50.50;39.75;;;;;16.72;62.80;101942.41;5056772;27;47671;-61
2022/05/08 09:45:59;;;;;;;;;51.75;39.00;;;;;16.81;62.82;101957.97;5049390;28;45506;-64
2022/05/08 09:48:26;;;;;;;;;53.00;43.75;;;;;16.90;62.80;101957.41;5053610;27;45436;-58
2022/05/08 09:50:58;;;;;;;;;56.00;43.00;;;;;16.83;62.19;101955.19;5046582;28;45747;-57
2022/05/08 09:53:25;;;;;;;;;48.75;39.00;;;;;16.85;62.46;101945.22;5056313;28;46562;-63
2022/05/08 09:56:00;;;;;;;;;46.25;39.50;;;;;16.98;61.78;101939.00;5056077;28;45433;-58
2022/05/08 09:58:26;;;;;;;;;46.00;39.25;;;;;17.16;61.53;101944.19;5054754;27;45396;-62
2022/05/08 10:00:54;;;;;;;;;51.00;40.00;;;;;17.33;60.90;101950.25;5053377;27;45415;-63
2022/05/08 10:03:20;;;;;;;;;46.50;39.00;;;;;17.47;60.89;101941.31;5038836;28;45264;-62
2022/05/08 10:05:52;;;;;;;;;50.25;41.50;;;;;17.68;60.38;101939.06;5042885;28;45502;-67
2022/05/08 10:08:37;;;;;;;;;56.75;43.75;;;;;17.56;59.99;101935.31;5052688;28;45425;-58
2022/05/08 10:14:03;;;;;;;;;49.00;40.25;;;;;17.90;59.63;101938.56;5050977;28;45334;-61
2022/05/08 10:16:51;;;;;;;;;45.50;37.75;;;;;18.09;58.53;101935.50;5041044;27;45490;-67
2022/05/08 10:19:19;;;;;;;;;52.25;43.00;;;;;18.13;58.99;101931.66;5067668;27;45618;-63
2022/05/08 10:22:02;;;;;;;;;52.00;39.50;;;;;18.15;58.36;101933.28;5051734;28;45601;-64
2022/05/08 10:24:39;;;;;;;;;49.50;40.75;;;;;18.19;58.48;101939.31;5053670;28;45841;-58
2022/05/08 10:27:11;;;;;;;;;51.67;38.00;;;;;18.26;57.82;101930.75;5063427;28;45192;-58
2022/05/08 10:30:03;;;;;;;;;52.33;43.67;;;;;18.41;57.83;101918.06;5075985;28;45325;-55
2022/05/08 10:32:34;;;;;;;;;49.67;42.67;;;;;18.77;57.28;101936.28;5074767;28;45882;-59
2022/05/08 10:35:31;;;;;;;;;54.00;43.67;;;;;18.82;57.78;101911.69;5052740;28;45465;-60
2022/05/08 10:37:59;;;;;;;;;50.67;40.67;;;;;18.90;56.39;101917.41;5055332;27;45196;-59
2022/05/08 10:40:28;;;;;;;;;54.33;40.33;;;;;18.92;58.16;101922.69;5066444;27;45533;-61
2022/05/08 10:43:14;;;;;;;;;53.00;43.00;;;;;19.18;55.50;101923.56;5065398;27;45197;-58
2022/05/08 10:45:43;;;;;;;;;51.67;41.33;;;;;19.07;55.87;101921.63;5069911;27;46048;-60
2022/05/08 10:48:09;;;;;;;;;52.75;40.50;;;;;19.07;55.54;101916.22;5075678;28;45452;-62
2022/05/08 10:50:40;;;;;;;;;53.50;41.00;;;;;19.24;55.58;101915.88;5066987;27;45510;-64
2022/05/08 10:53:06;;;;;;;;;53.50;42.00;;;;;19.09;55.09;101912.44;5055093;28;45554;-59
2022/05/08 10:55:32;;;;;;;;;46.00;39.00;;;;;19.16;57.09;101912.88;5053539;28;46109;-59
2022/05/08 10:57:57;;;;;;;;;46.67;38.33;;;;;19.36;54.43;101906.91;5055470;28;45529;-57
2022/05/08 11:00:30;;;;;;;;;50.33;40.33;;;;;19.71;54.96;101911.63;5053203;27;45499;-65
2022/05/08 11:02:59;;;;;;;;;54.00;41.00;;;;;19.98;54.18;101909.56;5051339;28;45510;-61
2022/05/08 11:05:39;;;;;;;;;50.00;40.67;;;;;20.04;52.67;101887.47;5053027;27;45847;-60
2022/05/08 11:08:07;;;;;;;;;47.67;39.00;;;;;20.15;53.96;101902.03;5052291;28;45378;-63
2022/05/08 11:10:34;;;;;;;;;50.00;40.00;;;;;20.21;52.67;101882.66;5052152;27;46808;-69
2022/05/08 11:13:12;;;;;;;;;45.67;39.00;;;;;20.51;51.96;101903.78;5054991;28;45394;-68
2022/05/08 11:15:43;;;;;;;;;50.67;41.67;;;;;20.60;52.27;101903.94;5051718;27;46260;-67
2022/05/08 11:18:15;;;;;;;;;50.00;41.33;;;;;20.53;51.66;101896.44;5052200;28;46079;-67
2022/05/08 11:20:55;;;;;;;;;49.67;39.33;;;;;20.53;51.47;101908.09;5052434;28;45450;-64
2022/05/08 11:23:26;;;;;;;;;49.33;40.33;;;;;20.74;51.07;101902.03;5050569;28;45359;-63
2022/05/08 11:26:00;;;;;;;;;49.33;39.67;;;;;20.99;50.45;101904.53;5054662;27;45452;-60
2022/05/08 11:28:28;;;;;;;;;50.33;39.67;;;;;21.02;51.02;101906.13;5047484;28;45990;-59
2022/05/08 11:30:56;;;;;;;;;48.00;38.33;;;;;21.01;50.85;101901.69;5056586;28;45552;-63
2022/05/08 11:36:32;;;;;;;;;51.67;37.67;;;;;21.05;49.94;101895.91;5050642;28;45811;-66
2022/05/08 11:39:03;;;;;;;;;43.67;37.33;;;;;21.00;50.03;101898.13;5058549;28;45373;-62
2022/05/08 11:41:34;;;;;;;;;46.00;40.00;;;;;20.86;49.87;101892.94;5070448;28;45421;-70